Time;durP1;ratioP1;P1;durP2;ratioP2;P2;SDS_P1;SDS_P2;PMS_P1;PMS_P2;Temp;Humidity;BMP_temperature;BMP_pressure;BME280_temperature;BME280_humidity;BME280_pressure;Samples;Min_cycle;Max_cycle;Signal;HPM_P1;HPM_P2
2023/11/11 00:02:05;;;;;;;57.03;26.77;;;7.00;99.90;;;;;;4402887;28;657520;-73
2023/11/11 00:04:52;;;;;;;51.53;25.60;;;6.80;99.90;;;;;;4405043;28;657498;-73
2023/11/11 00:07:40;;;;;;;59.87;26.40;;;6.90;99.90;;;;;;4431430;28;657123;-73
2023/11/11 00:10:28;;;;;;;52.58;26.45;;;6.90;99.90;;;;;;4408040;28;657606;-73
2023/11/11 00:13:15;;;;;;;46.40;21.77;;;6.90;99.90;;;;;;4426142;28;658081;-73
2023/11/11 00:16:03;;;;;;;48.72;24.38;;;6.80;99.90;;;;;;4403405;28;657795;-73
2023/11/11 00:18:51;;;;;;;54.90;24.07;;;6.80;99.90;;;;;;4424844;28;658461;-73
2023/11/11 00:21:41;;;;;;;54.53;24.93;;;6.80;99.90;;;;;;4407349;28;657572;-73
2023/11/11 00:24:29;;;;;;;48.03;24.37;;;6.80;99.90;;;;;;4401263;28;658033;-73
2023/11/11 00:27:16;;;;;;;45.77;23.63;;;6.80;99.90;;;;;;4423777;28;657797;-73
2023/11/11 00:30:06;;;;;;;51.67;23.63;;;6.90;99.90;;;;;;4405480;28;657953;-73
2023/11/11 00:32:54;;;;;;;46.77;22.77;;;6.90;99.90;;;;;;4407078;28;657788;-73
2023/11/11 00:35:42;;;;;;;46.13;23.83;;;6.80;99.90;;;;;;4424156;28;657998;-73
2023/11/11 00:38:30;;;;;;;44.73;22.40;;;6.80;99.90;;;;;;4405466;28;657950;-73
2023/11/11 00:41:17;;;;;;;40.47;22.17;;;6.80;99.90;;;;;;4410653;28;657854;-73
2023/11/11 00:44:09;;;;;;;44.30;23.50;;;6.80;99.90;;;;;;4427156;28;658757;-73
2023/11/11 00:46:56;;;;;;;42.57;21.10;;;6.80;99.90;;;;;;4399001;28;658060;-73
2023/11/11 00:49:43;;;;;;;43.60;19.97;;;6.80;99.90;;;;;;4399826;28;657335;-73
2023/11/11 00:52:33;;;;;;;46.17;22.40;;;6.80;99.90;;;;;;4427940;28;658366;-73
2023/11/11 00:55:21;;;;;;;41.37;23.07;;;6.80;99.90;;;;;;4397870;28;657635;-72
2023/11/11 00:58:08;;;;;;;47.93;25.23;;;6.70;99.90;;;;;;4403097;28;657898;-73
2023/11/11 01:00:55;;;;;;;53.13;25.57;;;6.70;99.90;;;;;;4421744;28;658497;-73
2023/11/11 01:03:43;;;;;;;48.00;23.47;;;6.70;99.90;;;;;;4393252;28;658186;-73
2023/11/11 01:06:30;;;;;;;53.03;26.33;;;6.70;99.90;;;;;;4417656;28;658186;-73
2023/11/11 01:09:19;;;;;;;60.42;28.80;;;6.70;99.90;;;;;;4403114;28;657792;-73
2023/11/11 01:12:07;;;;;;;59.30;28.33;;;6.70;99.90;;;;;;4422918;28;657863;-73
2023/11/11 01:14:54;;;;;;;57.17;28.07;;;6.70;99.90;;;;;;4401826;28;657870;-73
2023/11/11 01:17:42;;;;;;;55.07;28.33;;;6.70;99.90;;;;;;4422149;28;657608;-73
2023/11/11 01:20:29;;;;;;;50.63;27.47;;;6.70;99.90;;;;;;4401116;28;658401;-73
2023/11/11 01:23:17;;;;;;;48.35;25.30;;;6.80;99.90;;;;;;4420928;28;657604;-73
2023/11/11 01:26:06;;;;;;;56.50;27.38;;;6.80;99.90;;;;;;4403062;28;657494;-72
2023/11/11 01:28:54;;;;;;;60.53;28.50;;;6.80;99.90;;;;;;4398686;28;657533;-73
2023/11/11 01:31:41;;;;;;;56.80;28.60;;;6.70;99.90;;;;;;4417509;28;657653;-73
2023/11/11 01:34:29;;;;;;;53.97;28.63;;;6.70;99.90;;;;;;4403579;28;657531;-73
2023/11/11 01:37:16;;;;;;;60.60;28.90;;;6.70;99.90;;;;;;4421708;28;658523;-73
2023/11/11 01:40:04;;;;;;;55.90;28.83;;;6.80;99.90;;;;;;4395636;28;657866;-73
2023/11/11 01:42:52;;;;;;;57.10;29.13;;;6.70;99.90;;;;;;4414625;28;658013;-73
2023/11/11 01:45:41;;;;;;;59.47;29.70;;;6.70;99.90;;;;;;4404694;28;658331;-73
2023/11/11 01:48:28;;;;;;;59.03;29.30;;;6.70;99.90;;;;;;4402182;28;657718;-73
2023/11/11 01:51:15;;;;;;;58.83;30.83;;;6.70;99.90;;;;;;4421805;28;658325;-73
2023/11/11 01:54:05;;;;;;;60.57;31.03;;;6.80;99.90;;;;;;4392830;28;657447;-73
2023/11/11 01:56:52;;;;;;;60.73;29.53;;;6.70;99.90;;;;;;4403759;28;658148;-73
2023/11/11 01:59:41;;;;;;;60.07;31.50;;;6.70;99.90;;;;;;4417392;28;658736;-73
2023/11/11 02:02:28;;;;;;;65.03;32.17;;;6.70;99.90;;;;;;4400556;28;657670;-73
2023/11/11 02:05:16;;;;;;;58.83;29.03;;;6.80;99.90;;;;;;4424669;28;657925;-73
2023/11/11 02:08:05;;;;;;;56.10;31.00;;;6.70;99.90;;;;;;4397746;28;658163;-73
2023/11/11 02:10:53;;;;;;;60.20;30.83;;;6.70;99.90;;;;;;4403772;28;657175;-73
2023/11/11 02:13:40;;;;;;;45.90;24.03;;;6.80;99.90;;;;;;4423600;28;658914;-73
2023/11/11 02:16:30;;;;;;;43.13;22.73;;;6.80;99.90;;;;;;4399828;28;657702;-73
2023/11/11 02:19:17;;;;;;;36.37;18.60;;;6.70;99.90;;;;;;4421638;28;657441;-73
2023/11/11 02:22:04;;;;;;;38.37;17.70;;;6.60;99.90;;;;;;4396797;28;658615;-73
2023/11/11 02:24:53;;;;;;;26.10;15.20;;;6.60;99.90;;;;;;4419253;28;657959;-73
2023/11/11 02:27:42;;;;;;;30.87;16.40;;;6.70;99.90;;;;;;4397556;28;658200;-73
2023/11/11 02:30:29;;;;;;;30.77;15.43;;;6.60;99.90;;;;;;4400043;28;657647;-73
2023/11/11 02:33:16;;;;;;;28.33;14.83;;;6.50;99.90;;;;;;4419649;28;657283;-73
2023/11/11 02:36:06;;;;;;;29.30;13.47;;;6.50;99.90;;;;;;4395651;28;657536;-73
2023/11/11 02:38:53;;;;;;;30.33;15.77;;;6.50;99.90;;;;;;4403639;28;657444;-73
2023/11/11 02:41:42;;;;;;;28.17;14.57;;;6.60;99.90;;;;;;4422745;28;657265;-73
2023/11/11 02:44:29;;;;;;;28.90;13.93;;;6.70;99.90;;;;;;4399195;28;658043;-73
2023/11/11 02:47:16;;;;;;;29.60;14.83;;;6.70;99.90;;;;;;4428067;28;658822;-73
2023/11/11 02:50:04;;;;;;;24.73;12.87;;;6.70;99.90;;;;;;4403351;28;657772;-73
2023/11/11 02:52:51;;;;;;;24.23;12.77;;;6.70;99.90;;;;;;4407197;28;658171;-73
2023/11/11 02:55:38;;;;;;;25.83;13.10;;;6.70;99.90;;;;;;4401022;28;658183;-73
2023/11/11 02:58:27;;;;;;;25.87;13.13;;;6.70;99.90;;;;;;4423116;28;658038;-73
2023/11/11 03:01:14;;;;;;;27.40;13.77;;;6.70;99.90;;;;;;4401357;28;657538;-73
2023/11/11 03:04:01;;;;;;;25.97;12.87;;;6.60;99.90;;;;;;4418457;28;658164;-73
2023/11/11 03:06:49;;;;;;;25.53;13.23;;;6.70;99.90;;;;;;4399104;28;657705;-73
2023/11/11 03:09:40;;;;;;;26.33;13.60;;;6.60;99.90;;;;;;4416545;28;657748;-72
2023/11/11 03:12:27;;;;;;;27.27;12.83;;;6.60;99.90;;;;;;4396565;28;657898;-72
2023/11/11 03:15:17;;;;;;;28.27;11.83;;;6.70;99.90;;;;;;4394663;28;658273;-72
2023/11/11 03:18:05;;;;;;;31.87;15.67;;;6.60;99.90;;;;;;4397024;28;658179;-73
2023/11/11 03:20:52;;;;;;;32.03;15.77;;;6.60;99.90;;;;;;4418474;28;657798;-73
2023/11/11 03:23:39;;;;;;;33.20;15.57;;;6.60;99.90;;;;;;4402084;28;658694;-73
2023/11/11 03:26:27;;;;;;;22.40;9.53;;;6.60;99.90;;;;;;4425037;28;657571;-72
2023/11/11 03:29:15;;;;;;;36.28;16.50;;;6.50;99.90;;;;;;4394402;28;656620;-73
2023/11/11 03:32:04;;;;;;;40.93;18.90;;;6.50;99.90;;;;;;4419223;28;657169;-73
2023/11/11 03:34:51;;;;;;;41.37;18.13;;;6.50;99.90;;;;;;4398683;28;658654;-72
2023/11/11 03:37:38;;;;;;;30.50;13.97;;;6.50;99.90;;;;;;4397208;28;658241;-72
2023/11/11 03:40:25;;;;;;;25.97;12.00;;;6.60;99.90;;;;;;4420998;28;657517;-72
2023/11/11 03:43:13;;;;;;;36.10;17.80;;;6.50;99.90;;;;;;4402041;28;658264;-73
2023/11/11 03:46:00;;;;;;;40.70;17.27;;;6.50;99.90;;;;;;4422278;28;659048;-73
2023/11/11 03:48:49;;;;;;;35.70;16.57;;;6.40;99.90;;;;;;4408829;28;657478;-73
2023/11/11 03:51:36;;;;;;;44.90;19.20;;;6.40;99.90;;;;;;4423154;28;657764;-73
2023/11/11 03:54:23;;;;;;;27.50;11.93;;;6.40;99.90;;;;;;4399318;28;657678;-72
2023/11/11 03:57:11;;;;;;;26.03;11.30;;;6.50;99.90;;;;;;4407360;28;658309;-73
2023/11/11 03:59:59;;;;;;;34.53;15.37;;;6.40;99.90;;;;;;4401909;28;658035;-72
2023/11/11 04:02:47;;;;;;;26.47;14.47;;;6.40;99.90;;;;;;4422220;28;657359;-72
2023/11/11 04:05:36;;;;;;;12.73;6.20;;;6.50;99.90;;;;;;4400722;28;658726;-72
2023/11/11 04:08:23;;;;;;;27.47;13.67;;;6.40;99.90;;;;;;4400834;28;656721;-72
2023/11/11 04:11:10;;;;;;;25.17;14.03;;;6.30;99.90;;;;;;4422625;28;658134;-72
2023/11/11 04:13:59;;;;;;;27.60;13.93;;;6.40;99.90;;;;;;4402332;28;658180;-72
2023/11/11 04:16:46;;;;;;;27.37;14.60;;;6.40;99.90;;;;;;4418973;28;658482;-72
2023/11/11 04:19:33;;;;;;;33.43;15.30;;;6.40;99.90;;;;;;4401107;28;657708;-73
2023/11/11 04:22:22;;;;;;;23.80;12.60;;;6.30;99.90;;;;;;4419010;28;658101;-72
2023/11/11 04:25:10;;;;;;;32.10;14.57;;;6.30;99.90;;;;;;4389801;28;657981;-73
2023/11/11 04:27:58;;;;;;;37.77;16.57;;;6.30;99.90;;;;;;4391640;28;657549;-73
2023/11/11 04:30:45;;;;;;;29.43;14.27;;;6.30;99.90;;;;;;4420609;28;658058;-72
2023/11/11 04:33:33;;;;;;;33.93;16.17;;;6.30;99.90;;;;;;4412520;28;657443;-73
2023/11/11 04:36:21;;;;;;;38.37;17.00;;;6.30;99.90;;;;;;4415314;28;658344;-72
2023/11/11 04:39:10;;;;;;;36.67;16.67;;;6.30;99.90;;;;;;4399906;28;657643;-73
2023/11/11 04:41:59;;;;;;;33.30;16.60;;;6.30;99.90;;;;;;4399066;28;657310;-73
2023/11/11 04:44:47;;;;;;;35.53;16.57;;;6.30;99.90;;;;;;4412605;28;658091;-73
2023/11/11 04:47:34;;;;;;;44.87;17.57;;;6.30;99.90;;;;;;4400360;28;661021;-73
2023/11/11 04:50:22;;;;;;;37.60;17.87;;;6.30;99.90;;;;;;4420999;28;656918;-73
2023/11/11 04:53:09;;;;;;;41.43;18.00;;;6.30;99.90;;;;;;4390953;28;658529;-72
2023/11/11 04:55:58;;;;;;;35.97;16.93;;;6.30;99.90;;;;;;4416917;28;657376;-73
2023/11/11 04:58:45;;;;;;;31.30;11.43;;;6.30;99.90;;;;;;4394023;28;658591;-72
2023/11/11 05:01:32;;;;;;;36.90;18.30;;;6.30;99.90;;;;;;4413043;28;657590;-73
2023/11/11 05:04:20;;;;;;;43.83;18.63;;;6.30;99.90;;;;;;4419827;28;657642;-72
2023/11/11 05:07:09;;;;;;;41.23;19.87;;;6.40;99.90;;;;;;4421214;28;657870;-73
2023/11/11 05:09:57;;;;;;;42.42;18.73;;;6.30;99.90;;;;;;4421316;28;657642;-72
2023/11/11 05:12:47;;;;;;;46.20;19.43;;;6.40;99.90;;;;;;4401819;28;658314;-72
2023/11/11 05:15:37;;;;;;;49.57;20.93;;;6.40;99.90;;;;;;4398833;28;658917;-73
2023/11/11 05:18:25;;;;;;;50.53;21.70;;;6.30;99.90;;;;;;4388444;28;658110;-73
2023/11/11 05:21:14;;;;;;;41.47;18.70;;;6.40;99.90;;;;;;4415928;28;657978;-73
2023/11/11 05:24:01;;;;;;;47.60;19.43;;;6.40;99.90;;;;;;4423611;28;657532;-73
2023/11/11 05:26:49;;;;;;;46.17;20.53;;;6.40;99.90;;;;;;4397044;28;658405;-73
2023/11/11 05:29:37;;;;;;;49.53;21.93;;;6.40;99.90;;;;;;4418122;28;658537;-73
2023/11/11 05:32:24;;;;;;;50.40;20.88;;;6.50;99.90;;;;;;4403415;28;658364;-73
2023/11/11 05:35:12;;;;;;;54.27;21.77;;;6.40;99.90;;;;;;4421171;28;658669;-73
2023/11/11 05:37:59;;;;;;;67.83;21.50;;;6.40;99.90;;;;;;4401401;28;658228;-73
2023/11/11 05:40:46;;;;;;;68.43;22.73;;;6.40;99.90;;;;;;4419255;28;657603;-73
2023/11/11 05:43:33;;;;;;;70.80;21.70;;;6.30;99.90;;;;;;4401916;28;657823;-73
2023/11/11 05:46:24;;;;;;;66.73;23.80;;;6.30;99.90;;;;;;4415386;28;658351;-73
2023/11/11 05:49:11;;;;;;;79.33;25.93;;;6.40;99.90;;;;;;4393914;28;659595;-73
2023/11/11 05:51:59;;;;;;;76.97;24.20;;;6.30;99.90;;;;;;4394984;28;657350;-72
2023/11/11 05:54:46;;;;;;;74.87;25.40;;;6.30;99.90;;;;;;4416419;28;657927;-73
2023/11/11 05:57:34;;;;;;;87.77;26.83;;;6.30;99.90;;;;;;4403375;28;657834;-73
2023/11/11 06:00:21;;;;;;;75.20;26.07;;;6.30;99.90;;;;;;4419402;28;657698;-72
2023/11/11 06:03:10;;;;;;;82.90;28.30;;;6.40;99.90;;;;;;4404209;28;657296;-73
2023/11/11 06:05:57;;;;;;;100.37;27.50;;;6.40;99.90;;;;;;4417256;28;657795;-73
2023/11/11 06:08:45;;;;;;;110.37;26.53;;;6.40;99.90;;;;;;4420517;28;658750;-72
2023/11/11 06:11:32;;;;;;;123.97;28.60;;;6.40;99.90;;;;;;4416625;28;658644;-72
2023/11/11 06:14:20;;;;;;;135.37;28.40;;;6.40;99.90;;;;;;4421768;28;660126;-72
2023/11/11 06:17:07;;;;;;;163.33;28.13;;;6.40;99.90;;;;;;4419143;28;659162;-73
2023/11/11 06:19:56;;;;;;;98.67;26.63;;;6.40;99.90;;;;;;4422576;28;660656;-73
2023/11/11 06:22:44;;;;;;;129.17;26.37;;;6.40;99.90;;;;;;4405098;28;657605;-73
2023/11/11 06:25:31;;;;;;;117.57;26.17;;;6.50;99.90;;;;;;4416669;28;659299;-74
2023/11/11 06:28:18;;;;;;;152.37;27.63;;;6.50;99.90;;;;;;4402840;28;658928;-73
2023/11/11 06:31:06;;;;;;;114.18;25.08;;;6.60;99.90;;;;;;4417796;28;658365;-74
2023/11/11 06:33:53;;;;;;;199.90;26.80;;;6.50;99.90;;;;;;4401626;28;658749;-73
2023/11/11 06:36:42;;;;;;;121.03;26.00;;;6.40;99.90;;;;;;4420844;28;659181;-74
2023/11/11 06:39:32;;;;;;;327.07;28.97;;;6.40;99.90;;;;;;4392929;28;659516;-73
2023/11/11 06:42:19;;;;;;;207.27;27.80;;;6.40;99.90;;;;;;4392542;28;658897;-74
2023/11/11 06:45:07;;;;;;;181.97;28.30;;;6.50;99.90;;;;;;4418145;28;659148;-73
2023/11/11 06:47:54;;;;;;;130.67;28.37;;;6.40;99.90;;;;;;4396792;28;658934;-73
2023/11/11 06:50:41;;;;;;;101.20;27.53;;;6.50;99.90;;;;;;4423728;28;658877;-73
2023/11/11 06:53:30;;;;;;;220.37;29.83;;;6.60;99.90;;;;;;4399863;28;658463;-74
2023/11/11 06:56:18;;;;;;;88.10;24.47;;;6.50;99.90;;;;;;4397657;28;658361;-73
2023/11/11 06:59:07;;;;;;;98.90;27.00;;;6.60;99.90;;;;;;4423961;28;657748;-74
2023/11/11 07:01:54;;;;;;;111.73;27.40;;;6.70;99.90;;;;;;4397501;28;659066;-74
2023/11/11 07:04:41;;;;;;;89.60;24.80;;;6.70;99.90;;;;;;4419887;28;658965;-74
2023/11/11 07:07:29;;;;;;;97.83;27.43;;;6.50;99.90;;;;;;4397130;28;657767;-73
2023/11/11 07:10:17;;;;;;;84.73;25.63;;;6.70;99.90;;;;;;4428198;28;659167;-73
2023/11/11 07:13:06;;;;;;;90.37;26.70;;;6.70;99.90;;;;;;4403274;28;658154;-73
2023/11/11 07:15:53;;;;;;;96.90;26.57;;;6.80;99.90;;;;;;4403729;28;657956;-73
2023/11/11 07:18:40;;;;;;;127.80;28.90;;;6.90;99.90;;;;;;4420272;28;657994;-73
2023/11/11 07:21:28;;;;;;;103.63;29.53;;;6.90;99.90;;;;;;4401014;28;659804;-74
2023/11/11 07:24:15;;;;;;;112.17;29.10;;;6.90;99.90;;;;;;4418296;28;659798;-73
2023/11/11 07:27:05;;;;;;;95.10;27.20;;;6.90;99.90;;;;;;4412423;28;659269;-73
2023/11/11 07:29:53;;;;;;;79.43;26.47;;;6.90;99.90;;;;;;4397971;28;658048;-73
2023/11/11 07:32:40;;;;;;;83.73;26.33;;;7.00;99.90;;;;;;4421339;28;658337;-73
2023/11/11 07:35:28;;;;;;;80.70;26.30;;;7.10;99.90;;;;;;4404120;28;657801;-73
2023/11/11 07:38:15;;;;;;;87.77;27.57;;;7.10;99.90;;;;;;4421274;28;659058;-73
2023/11/11 07:41:02;;;;;;;82.10;26.03;;;7.10;99.90;;;;;;4398110;28;659633;-74
2023/11/11 07:43:53;;;;;;;90.03;27.40;;;7.00;99.90;;;;;;4418694;28;658454;-73
2023/11/11 07:46:41;;;;;;;79.63;27.13;;;7.00;99.90;;;;;;4399929;28;657943;-73
2023/11/11 07:49:28;;;;;;;77.80;26.30;;;7.10;99.90;;;;;;4399989;28;657669;-73
2023/11/11 07:52:15;;;;;;;82.37;26.50;;;7.20;99.90;;;;;;4420657;28;658090;-74
2023/11/11 07:55:02;;;;;;;82.17;27.43;;;7.00;99.90;;;;;;4402051;28;658290;-73
2023/11/11 07:57:50;;;;;;;74.60;26.88;;;7.20;99.90;;;;;;4418092;28;658100;-73
2023/11/11 08:00:39;;;;;;;79.30;27.30;;;7.30;99.90;;;;;;4395761;28;657860;-73
2023/11/11 08:03:27;;;;;;;80.20;27.50;;;7.20;99.90;;;;;;4424813;28;656981;-73
2023/11/11 08:06:15;;;;;;;78.27;27.33;;;7.30;99.90;;;;;;4399537;28;658040;-73
2023/11/11 08:09:03;;;;;;;60.90;21.83;;;7.40;99.90;;;;;;4415926;28;658036;-73
2023/11/11 08:11:50;;;;;;;71.63;25.40;;;7.40;99.90;;;;;;4419114;28;658168;-73
2023/11/11 08:14:38;;;;;;;80.28;27.65;;;7.30;99.90;;;;;;4398750;28;657348;-74
2023/11/11 08:17:26;;;;;;;77.47;28.83;;;7.50;99.90;;;;;;4414539;28;658378;-74
2023/11/11 08:20:16;;;;;;;87.10;28.02;;;7.40;99.90;;;;;;4402935;28;657646;-74
2023/11/11 08:23:03;;;;;;;82.87;29.20;;;7.50;99.90;;;;;;4399024;28;658165;-73
2023/11/11 08:25:50;;;;;;;83.80;29.67;;;7.60;99.90;;;;;;4416140;28;657822;-74
2023/11/11 08:28:37;;;;;;;75.27;25.97;;;7.60;99.90;;;;;;4400668;28;657627;-74
2023/11/11 08:31:25;;;;;;;75.93;25.50;;;7.60;99.90;;;;;;4420493;28;657815;-73
2023/11/11 08:34:14;;;;;;;75.77;25.87;;;7.60;99.90;;;;;;4419469;28;657618;-73
2023/11/11 08:37:04;;;;;;;84.77;29.10;;;7.60;99.90;;;;;;4423288;28;657501;-74
2023/11/11 08:39:51;;;;;;;94.78;31.60;;;7.50;99.90;;;;;;4394717;28;657719;-74
2023/11/11 08:42:39;;;;;;;83.63;29.83;;;7.30;99.90;;;;;;4402297;28;658316;-73
2023/11/11 08:45:27;;;;;;;99.90;31.57;;;7.40;99.90;;;;;;4417237;28;657267;-73
2023/11/11 08:48:15;;;;;;;92.10;31.50;;;7.30;99.90;;;;;;4399453;28;657518;-74
2023/11/11 08:51:03;;;;;;;94.93;32.63;;;7.40;99.90;;;;;;4426698;28;656854;-74
2023/11/11 08:53:51;;;;;;;107.23;30.87;;;7.30;99.90;;;;;;4402115;28;657953;-75
2023/11/11 08:56:38;;;;;;;88.43;30.27;;;7.30;99.90;;;;;;4401680;28;659475;-75
2023/11/11 08:59:25;;;;;;;87.97;28.87;;;7.00;99.90;;;;;;4421768;28;658098;-76
2023/11/11 09:02:12;;;;;;;87.65;29.58;;;7.10;99.90;;;;;;4402075;28;657490;-77
2023/11/11 09:05:00;;;;;;;102.27;28.30;;;7.10;99.90;;;;;;4425282;28;657979;-77
2023/11/11 09:07:49;;;;;;;84.90;27.80;;;7.10;99.90;;;;;;4415938;28;659074;-76
2023/11/11 09:10:36;;;;;;;76.60;25.93;;;7.10;99.90;;;;;;4428674;28;657347;-75
2023/11/11 09:13:24;;;;;;;82.77;27.57;;;7.20;99.90;;;;;;4405531;28;658664;-74
2023/11/11 09:16:11;;;;;;;85.23;29.13;;;7.10;99.90;;;;;;4424541;28;658814;-74
2023/11/11 09:18:58;;;;;;;85.13;30.20;;;7.20;99.90;;;;;;4399482;28;657624;-75
2023/11/11 09:21:47;;;;;;;70.93;27.33;;;7.20;99.90;;;;;;4412715;28;658188;-75
2023/11/11 09:24:36;;;;;;;71.20;22.83;;;7.20;99.90;;;;;;4398702;28;657779;-75
2023/11/11 09:27:23;;;;;;;73.03;26.23;;;7.20;99.90;;;;;;4406654;28;658883;-75
2023/11/11 09:30:11;;;;;;;81.95;29.90;;;7.30;99.90;;;;;;4416854;28;658168;-75
2023/11/11 09:32:59;;;;;;;79.13;29.07;;;7.40;99.90;;;;;;4407815;28;657622;-75
2023/11/11 09:35:46;;;;;;;76.20;28.20;;;7.30;99.90;;;;;;4425238;28;657668;-75
2023/11/11 09:38:33;;;;;;;87.60;31.97;;;7.50;99.90;;;;;;4398024;28;657829;-75
2023/11/11 09:41:22;;;;;;;89.78;30.80;;;7.50;99.90;;;;;;4416976;28;658228;-75
2023/11/11 09:44:09;;;;;;;74.10;25.13;;;7.60;99.90;;;;;;4392253;28;658210;-74
2023/11/11 09:46:58;;;;;;;81.40;30.27;;;7.60;99.90;;;;;;4418434;28;658138;-75
2023/11/11 09:49:46;;;;;;;79.73;30.47;;;7.50;99.90;;;;;;4398474;28;657668;-75
2023/11/11 09:52:34;;;;;;;92.03;33.37;;;7.40;99.90;;;;;;4395143;28;657672;-75
2023/11/11 09:55:23;;;;;;;93.63;32.53;;;7.40;99.90;;;;;;4415551;28;657359;-75
2023/11/11 09:58:11;;;;;;;92.07;33.67;;;7.30;99.90;;;;;;4398031;28;658296;-74
2023/11/11 10:00:59;;;;;;;84.25;33.40;;;7.50;99.90;;;;;;4404049;28;657205;-74
2023/11/11 10:03:46;;;;;;;92.33;34.03;;;7.60;99.90;;;;;;4423222;28;658086;-74
2023/11/11 10:06:33;;;;;;;90.87;32.20;;;7.60;99.90;;;;;;4394617;28;657855;-75
2023/11/11 10:09:21;;;;;;;90.90;34.33;;;7.70;99.90;;;;;;4421816;28;658455;-75
2023/11/11 10:12:10;;;;;;;87.03;33.43;;;7.70;99.90;;;;;;4407319;28;658493;-75
2023/11/11 10:15:02;;;;;;;86.47;33.77;;;7.80;99.90;;;;;;4391622;28;657684;-75
2023/11/11 10:17:49;;;;;;;84.07;33.67;;;7.80;99.90;;;;;;4398596;28;658666;-74
2023/11/11 10:20:37;;;;;;;79.83;32.63;;;8.00;99.90;;;;;;4421162;28;658105;-74
2023/11/11 10:23:24;;;;;;;84.17;33.63;;;7.70;99.90;;;;;;4397782;28;658151;-74
2023/11/11 10:26:11;;;;;;;82.63;33.27;;;7.90;99.90;;;;;;4423431;28;656899;-74
2023/11/11 10:28:59;;;;;;;74.17;31.90;;;7.90;99.90;;;;;;4400906;28;657143;-74
2023/11/11 10:31:49;;;;;;;77.10;32.67;;;8.00;99.90;;;;;;4418239;28;658293;-72
2023/11/11 10:34:37;;;;;;;71.47;28.50;;;7.90;99.90;;;;;;4391190;28;657572;-74
2023/11/11 10:37:25;;;;;;;84.53;32.80;;;8.10;99.90;;;;;;4399960;28;658577;-74
2023/11/11 10:40:14;;;;;;;80.63;32.60;;;8.00;99.90;;;;;;4418641;28;658033;-74
2023/11/11 10:43:01;;;;;;;75.30;30.83;;;8.10;99.90;;;;;;4419541;28;657769;-74
2023/11/11 10:45:49;;;;;;;74.20;31.83;;;8.30;99.90;;;;;;4402725;28;658294;-73
2023/11/11 10:48:38;;;;;;;76.27;31.03;;;7.90;99.90;;;;;;4421479;28;658468;-74
2023/11/11 10:51:25;;;;;;;74.60;31.53;;;8.00;99.90;;;;;;4397983;28;658096;-74
2023/11/11 10:54:12;;;;;;;71.13;30.10;;;8.00;99.90;;;;;;4414594;28;658005;-74
2023/11/11 10:57:00;;;;;;;74.93;32.17;;;8.10;99.90;;;;;;4426941;28;657711;-73
2023/11/11 10:59:47;;;;;;;68.87;29.73;;;8.10;99.90;;;;;;4419296;28;658225;-74
2023/11/11 11:02:36;;;;;;;74.30;31.20;;;8.40;99.90;;;;;;4424910;28;657606;-74
2023/11/11 11:05:30;;;;;;;68.03;30.77;;;8.70;99.90;;;;;;4401508;28;657822;-74
2023/11/11 11:08:21;;;;;;;62.67;27.20;;;8.50;99.90;;;;;;4400566;28;657899;-74
2023/11/11 11:11:15;;;;;;;51.70;25.00;;;8.60;99.90;;;;;;4404076;28;657555;-73
2023/11/11 11:14:08;;;;;;;61.60;27.63;;;8.60;99.90;;;;;;4396964;28;657252;-72
2023/11/11 11:16:55;;;;;;;55.90;24.90;;;8.70;99.90;;;;;;4390697;28;657334;-73
2023/11/11 11:19:53;;;;;;;51.23;24.67;;;8.70;99.90;;;;;;4410671;28;657361;-73
2023/11/11 11:22:43;;;;;;;49.47;24.17;;;9.00;99.90;;;;;;4390513;28;657835;-72
2023/11/11 11:25:36;;;;;;;53.20;23.37;;;9.00;99.90;;;;;;4397587;28;658487;-72
2023/11/11 11:28:25;;;;;;;48.17;21.90;;;9.00;99.90;;;;;;4374829;28;658339;-71
2023/11/11 11:31:12;;;;;;;41.05;20.70;;;9.00;99.90;;;;;;4406392;28;658043;-73
2023/11/11 11:34:00;;;;;;;41.83;20.73;;;8.80;99.90;;;;;;4424476;28;657843;-72
2023/11/11 11:36:52;;;;;;;47.73;22.07;;;8.60;99.90;;;;;;4423043;28;657696;-74
2023/11/11 11:39:45;;;;;;;42.37;19.47;;;8.90;99.90;;;;;;4408636;28;657987;-72
2023/11/11 11:42:33;;;;;;;30.13;14.53;;;8.70;99.90;;;;;;4397192;28;657651;-74
2023/11/11 11:45:29;;;;;;;38.80;19.97;;;8.60;99.90;;;;;;4422695;28;658007;-72
2023/11/11 11:48:16;;;;;;;30.13;15.88;;;8.60;99.90;;;;;;4398936;28;658761;-72
2023/11/11 11:51:08;;;;;;;36.27;17.83;;;8.80;99.90;;;;;;4396931;28;657395;-72
2023/11/11 11:53:56;;;;;;;37.47;17.13;;;8.70;99.90;;;;;;4400708;28;657909;-72
2023/11/11 11:56:45;;;;;;;36.90;18.53;;;8.70;99.90;;;;;;4406088;28;657646;-72
2023/11/11 11:59:33;;;;;;;34.73;17.20;;;8.40;99.90;;;;;;4414799;28;657714;-73
2023/11/11 12:02:20;;;;;;;37.05;15.85;;;8.30;99.90;;;;;;4414823;28;658369;-72
2023/11/11 12:05:08;;;;;;;31.17;16.33;;;8.30;99.90;;;;;;4404110;28;658025;-74
2023/11/11 12:07:56;;;;;;;31.77;15.63;;;8.30;99.90;;;;;;4423041;28;658280;-72
2023/11/11 12:10:46;;;;;;;35.40;16.70;;;8.30;99.90;;;;;;4390677;28;658185;-73
2023/11/11 12:13:38;;;;;;;34.33;17.23;;;8.30;99.90;;;;;;4388880;28;658342;-72
2023/11/11 12:16:39;;;;;;;35.17;17.63;;;8.10;99.90;;;;;;4381559;28;658330;-73
2023/11/11 12:19:27;;;;;;;39.15;18.52;;;8.00;99.90;;;;;;4387526;28;657436;-72
2023/11/11 12:22:14;;;;;;;42.77;20.33;;;8.00;99.90;;;;;;4388648;28;657492;-72
2023/11/11 12:25:02;;;;;;;41.87;21.10;;;7.80;99.90;;;;;;4413927;28;657723;-72
2023/11/11 12:27:49;;;;;;;46.57;20.20;;;8.00;99.90;;;;;;4391873;28;657975;-73
2023/11/11 12:30:38;;;;;;;39.17;19.57;;;8.00;99.90;;;;;;4413510;28;657851;-73
2023/11/11 12:33:25;;;;;;;43.67;21.07;;;8.00;99.90;;;;;;4387023;28;659240;-72
2023/11/11 12:36:14;;;;;;;45.93;21.77;;;8.00;99.90;;;;;;4386506;28;658104;-72
2023/11/11 12:39:07;;;;;;;49.07;23.47;;;7.90;99.90;;;;;;4408119;28;658097;-72
2023/11/11 12:41:55;;;;;;;43.60;22.63;;;7.80;99.90;;;;;;4388634;28;658336;-73
2023/11/11 12:44:43;;;;;;;50.70;23.60;;;7.70;99.90;;;;;;4387564;28;658539;-74
2023/11/11 12:47:31;;;;;;;48.63;24.67;;;7.70;99.90;;;;;;4402650;28;658044;-73
2023/11/11 12:50:18;;;;;;;50.07;24.00;;;7.70;99.90;;;;;;4387117;28;657669;-73
2023/11/11 12:53:07;;;;;;;48.53;23.40;;;7.60;99.90;;;;;;4410476;28;657653;-73
2023/11/11 12:56:04;;;;;;;51.10;24.03;;;7.80;99.90;;;;;;4388850;28;657095;-73
2023/11/11 12:59:04;;;;;;;46.20;21.57;;;7.80;99.90;;;;;;4384768;28;658701;-73
2023/11/11 13:01:52;;;;;;;51.07;23.97;;;7.60;99.90;;;;;;4387342;28;657542;-73
2023/11/11 13:04:40;;;;;;;58.73;26.30;;;7.60;99.90;;;;;;4385208;28;658321;-74
2023/11/11 13:07:29;;;;;;;59.70;27.37;;;7.60;99.90;;;;;;4391088;28;657412;-73
2023/11/11 13:10:21;;;;;;;53.80;26.17;;;7.60;99.90;;;;;;4417356;28;657820;-73
2023/11/11 13:13:08;;;;;;;58.50;28.80;;;7.70;99.90;;;;;;4377317;28;657952;-73
2023/11/11 13:15:55;;;;;;;56.33;25.48;;;7.70;99.90;;;;;;4420992;28;658240;-73
2023/11/11 13:18:43;;;;;;;64.03;28.80;;;7.70;99.90;;;;;;4404480;28;658419;-74
2023/11/11 13:21:32;;;;;;;66.25;28.70;;;7.70;99.90;;;;;;4422993;28;658653;-73
2023/11/11 13:24:19;;;;;;;70.93;29.30;;;7.70;99.90;;;;;;4403839;28;658390;-73
2023/11/11 13:27:07;;;;;;;69.83;29.70;;;7.60;99.90;;;;;;4422113;28;657862;-74
2023/11/11 13:29:54;;;;;;;67.93;31.17;;;7.60;99.90;;;;;;4401883;28;658878;-75
2023/11/11 13:32:41;;;;;;;66.13;30.20;;;7.70;99.90;;;;;;4422276;28;657984;-74
2023/11/11 13:35:30;;;;;;;78.03;33.43;;;7.70;99.90;;;;;;4405187;28;657886;-73
2023/11/11 13:38:20;;;;;;;75.63;32.60;;;7.80;99.90;;;;;;4409040;28;657554;-74
2023/11/11 13:41:08;;;;;;;69.05;30.67;;;7.90;99.90;;;;;;4409877;28;657733;-74
2023/11/11 13:43:55;;;;;;;72.23;30.60;;;7.90;99.90;;;;;;4426683;28;657621;-74
2023/11/11 13:46:43;;;;;;;69.33;32.07;;;7.80;99.90;;;;;;4398818;28;657488;-74
2023/11/11 13:49:31;;;;;;;110.00;44.20;;;7.70;99.90;;;;;;4427268;28;658868;-74
2023/11/11 13:52:18;;;;;;;70.50;34.13;;;7.90;99.90;;;;;;4403699;28;659060;-74
2023/11/11 13:55:09;;;;;;;81.57;35.57;;;7.70;99.90;;;;;;4424594;28;659077;-74
2023/11/11 13:57:59;;;;;;;76.10;34.27;;;7.60;99.90;;;;;;4401588;28;657733;-75
2023/11/11 14:00:46;;;;;;;81.50;36.20;;;7.60;99.90;;;;;;4402389;28;657425;-74
2023/11/11 14:03:33;;;;;;;80.50;34.87;;;7.70;99.90;;;;;;4399059;28;657691;-74
2023/11/11 14:06:21;;;;;;;78.93;36.83;;;7.70;99.90;;;;;;4415368;28;658438;-75
2023/11/11 14:09:10;;;;;;;80.83;35.43;;;7.70;99.90;;;;;;4405484;28;657896;-75
2023/11/11 14:12:00;;;;;;;83.38;37.28;;;7.60;99.90;;;;;;4395167;28;657689;-75